Time;durP1;ratioP1;P1;durP2;ratioP2;P2;SDS_P1;SDS_P2;PMS_P1;PMS_P2;Temp;Humidity;BMP_temperature;BMP_pressure;BME280_temperature;BME280_humidity;BME280_pressure;Samples;Min_cycle;Max_cycle;Signal;HPM_P1;HPM_P2
2021/05/25 00:01:53;;;;;;;0.10;0.10;;;;;;;;;;5048201;28;20042;-87
2021/05/25 00:04:19;;;;;;;0.10;0.10;;;;;;;;;;5031833;28;20041;-86
2021/05/25 00:06:45;;;;;;;0.10;0.10;;;;;;;;;;5031551;28;20168;-87
2021/05/25 00:09:13;;;;;;;0.10;0.10;;;;;;;;;;5048194;28;20116;-86
2021/05/25 00:11:39;;;;;;;0.10;0.10;;;;;;;;;;5031643;28;20044;-87
2021/05/25 00:14:05;;;;;;;0.10;0.10;;;;;;;;;;5031632;28;20071;-87
2021/05/25 00:16:31;;;;;;;0.10;0.10;;;;;;;;;;5048375;28;20191;-86
2021/05/25 00:18:58;;;;;;;0.10;0.10;;;;;;;;;;5031580;28;20076;-86
2021/05/25 00:21:24;;;;;;;0.10;0.10;;;;;;;;;;5031467;28;20049;-86
2021/05/25 00:23:50;;;;;;;0.10;0.10;;;;;;;;;;5031592;28;20398;-85
2021/05/25 00:26:16;;;;;;;0.10;0.10;;;;;;;;;;5047814;28;20034;-87
2021/05/25 00:28:42;;;;;;;0.10;0.10;;;;;;;;;;5031424;28;20041;-86
2021/05/25 00:31:09;;;;;;;0.10;0.10;;;;;;;;;;5031420;28;20037;-87
2021/05/25 00:33:35;;;;;;;0.10;0.10;;;;;;;;;;5032428;28;20041;-87
2021/05/25 00:36:01;;;;;;;0.10;0.10;;;;;;;;;;5031436;28;20124;-88
2021/05/25 00:38:28;;;;;;;0.10;0.10;;;;;;;;;;5031078;28;20049;-88
2021/05/25 00:40:56;;;;;;;0.10;0.10;;;;;;;;;;5031256;28;20048;-88
2021/05/25 00:43:22;;;;;;;0.10;0.10;;;;;;;;;;5031201;28;20042;-87
2021/05/25 00:45:48;;;;;;;0.10;0.10;;;;;;;;;;5031161;28;20509;-88
2021/05/25 00:48:14;;;;;;;0.10;0.10;;;;;;;;;;5031209;28;20060;-88
2021/05/25 00:50:40;;;;;;;0.10;0.10;;;;;;;;;;5047683;28;20033;-88
2021/05/25 00:53:06;;;;;;;0.10;0.10;;;;;;;;;;5031082;28;20035;-87
2021/05/25 00:55:33;;;;;;;0.10;0.10;;;;;;;;;;5031145;28;20041;-87
2021/05/25 00:58:02;;;;;;;0.10;0.10;;;;;;;;;;5031050;28;20123;-86
2021/05/25 01:00:32;;;;;;;0.10;0.10;;;;;;;;;;5031096;28;20091;-88
2021/05/25 01:02:58;;;;;;;0.10;0.10;;;;;;;;;;5031021;28;20091;-87
2021/05/25 01:05:24;;;;;;;0.10;0.10;;;;;;;;;;5047318;28;20041;-86
2021/05/25 01:07:50;;;;;;;0.10;0.10;;;;;;;;;;5032011;28;20076;-86
2021/05/25 01:10:22;;;;;;;0.10;0.10;;;;;;;;;;5047428;28;20041;-86
2021/05/25 01:12:55;;;;;;;0.10;0.10;;;;;;;;;;5030937;28;20049;-87
2021/05/25 01:15:21;;;;;;;0.10;0.10;;;;;;;;;;5034531;28;20095;-86
2021/05/25 01:17:47;;;;;;;0.10;0.10;;;;;;;;;;5051398;28;20129;-87
2021/05/25 01:20:16;;;;;;;0.10;0.10;;;;;;;;;;5035177;28;20124;-87
2021/05/25 01:22:42;;;;;;;0.10;0.10;;;;;;;;;;5036101;28;20095;-85
2021/05/25 01:25:16;;;;;;;0.10;0.10;;;;;;;;;;5034754;28;20048;-87
2021/05/25 01:27:42;;;;;;;0.10;0.10;;;;;;;;;;5018171;28;20077;-87
2021/05/25 01:30:09;;;;;;;0.10;0.10;;;;;;;;;;5034786;28;20042;-87
2021/05/25 01:32:35;;;;;;;0.10;0.10;;;;;;;;;;5051305;28;20137;-86
2021/05/25 01:35:01;;;;;;;0.10;0.10;;;;;;;;;;5051239;28;20178;-88
2021/05/25 01:37:27;;;;;;;0.10;0.10;;;;;;;;;;5034416;28;20227;-89
2021/05/25 01:39:55;;;;;;;0.10;0.10;;;;;;;;;;5034730;28;20038;-88
2021/05/25 01:42:22;;;;;;;0.10;0.10;;;;;;;;;;5051159;28;20133;-89
2021/05/25 01:44:48;;;;;;;0.10;0.10;;;;;;;;;;5034684;28;20040;-88
2021/05/25 01:47:17;;;;;;;0.10;0.10;;;;;;;;;;5034771;28;20496;-89
2021/05/25 01:49:43;;;;;;;0.10;0.10;;;;;;;;;;5034469;28;20038;-87
2021/05/25 01:52:10;;;;;;;0.10;0.10;;;;;;;;;;5034423;28;20473;-87
2021/05/25 01:54:36;;;;;;;0.10;0.10;;;;;;;;;;5034407;28;20083;-87
2021/05/25 01:57:02;;;;;;;0.10;0.10;;;;;;;;;;5050725;28;20543;-87
2021/05/25 01:59:30;;;;;;;0.10;0.10;;;;;;;;;;5034087;28;20042;-87
2021/05/25 02:01:56;;;;;;;0.13;0.13;;;;;;;;;;5034202;28;20045;-88
2021/05/25 02:04:22;;;;;;;0.10;0.10;;;;;;;;;;5034677;28;20467;-89
2021/05/25 02:06:48;;;;;;;0.10;0.10;;;;;;;;;;5034470;28;20053;-88
2021/05/25 02:09:14;;;;;;;0.10;0.10;;;;;;;;;;5050866;28;20072;-88
2021/05/25 02:11:40;;;;;;;0.10;0.10;;;;;;;;;;5050826;28;20049;-90
2021/05/25 02:14:06;;;;;;;0.10;0.10;;;;;;;;;;5050597;28;20034;-89
2021/05/25 02:16:32;;;;;;;0.10;0.10;;;;;;;;;;5050554;28;20041;-89
2021/05/25 02:18:58;;;;;;;0.10;0.10;;;;;;;;;;5034010;28;20133;-89
2021/05/25 02:21:24;;;;;;;0.10;0.10;;;;;;;;;;5035093;28;20044;-89
2021/05/25 02:23:51;;;;;;;0.10;0.10;;;;;;;;;;5017277;28;20041;-88
2021/05/25 02:26:17;;;;;;;0.10;0.10;;;;;;;;;;5049132;28;20492;-88
2021/05/25 02:28:44;;;;;;;0.10;0.10;;;;;;;;;;5050186;28;20205;-86
2021/05/25 02:31:11;;;;;;;0.10;0.10;;;;;;;;;;5033749;28;20038;-86
2021/05/25 02:33:37;;;;;;;0.10;0.10;;;;;;;;;;5050163;28;20038;-87
2021/05/25 02:36:03;;;;;;;0.10;0.10;;;;;;;;;;5033412;28;20124;-87
2021/05/25 02:38:30;;;;;;;0.10;0.10;;;;;;;;;;5033138;28;20069;-87
2021/05/25 02:40:56;;;;;;;0.10;0.10;;;;;;;;;;5033381;28;20041;-88
2021/05/25 02:43:25;;;;;;;0.10;0.10;;;;;;;;;;5033791;28;20045;-88
2021/05/25 02:45:51;;;;;;;0.10;0.10;;;;;;;;;;5033698;28;20512;-89
2021/05/25 02:48:17;;;;;;;0.10;0.10;;;;;;;;;;5033540;28;20121;-88
2021/05/25 02:50:43;;;;;;;0.10;0.10;;;;;;;;;;5050015;28;20473;-89
2021/05/25 02:53:09;;;;;;;0.10;0.10;;;;;;;;;;5033464;28;20037;-89
2021/05/25 02:55:36;;;;;;;0.20;0.20;;;;;;;;;;5033374;28;20064;-89
2021/05/25 02:58:02;;;;;;;0.10;0.10;;;;;;;;;;5033274;28;20037;-88
2021/05/25 03:00:29;;;;;;;0.10;0.10;;;;;;;;;;5033316;28;20041;-89
2021/05/25 03:02:55;;;;;;;0.10;0.10;;;;;;;;;;5017210;28;20056;-89
2021/05/25 03:05:25;;;;;;;0.10;0.10;;;;;;;;;;5032930;28;20492;-90
2021/05/25 03:07:55;;;;;;;0.10;0.10;;;;;;;;;;5033381;28;20045;-89
2021/05/25 03:10:21;;;;;;;0.10;0.10;;;;;;;;;;5033218;28;20096;-89
2021/05/25 03:12:47;;;;;;;0.10;0.10;;;;;;;;;;5033532;28;20076;-89
2021/05/25 03:15:14;;;;;;;0.10;0.10;;;;;;;;;;5033308;28;20053;-88
2021/05/25 03:17:40;;;;;;;0.17;0.17;;;;;;;;;;5033061;28;20495;-89
2021/05/25 03:20:07;;;;;;;0.10;0.10;;;;;;;;;;5033043;28;20481;-88
2021/05/25 03:22:33;;;;;;;0.20;0.20;;;;;;;;;;5032775;28;20101;-89
2021/05/25 03:25:00;;;;;;;0.25;0.25;;;;;;;;;;5049092;28;20129;-89
2021/05/25 03:27:26;;;;;;;0.10;0.10;;;;;;;;;;5032785;28;20465;-88
2021/05/25 03:29:52;;;;;;;0.10;0.10;;;;;;;;;;5032555;28;20039;-89
2021/05/25 03:32:18;;;;;;;0.10;0.10;;;;;;;;;;5032597;28;20033;-88
2021/05/25 03:34:45;;;;;;;0.10;0.10;;;;;;;;;;5033715;28;20033;-88
2021/05/25 03:37:11;;;;;;;0.10;0.10;;;;;;;;;;5031972;28;20037;-88
2021/05/25 03:39:37;;;;;;;0.10;0.10;;;;;;;;;;5033657;28;20046;-88
2021/05/25 03:42:03;;;;;;;0.10;0.10;;;;;;;;;;5049026;28;20165;-88
2021/05/25 03:44:30;;;;;;;0.10;0.10;;;;;;;;;;5032373;28;20041;-87
2021/05/25 03:46:56;;;;;;;0.10;0.10;;;;;;;;;;5033222;28;20048;-87
2021/05/25 03:49:22;;;;;;;0.10;0.10;;;;;;;;;;5048933;28;20037;-89
2021/05/25 03:51:49;;;;;;;0.10;0.10;;;;;;;;;;5049002;28;20033;-88
2021/05/25 03:54:26;;;;;;;0.10;0.10;;;;;;;;;;5032456;28;20045;-89
2021/05/25 03:56:58;;;;;;;0.10;0.10;;;;;;;;;;5032548;28;20065;-90
2021/05/25 03:59:24;;;;;;;0.10;0.10;;;;;;;;;;5032424;28;20053;-89
2021/05/25 04:01:51;;;;;;;0.10;0.10;;;;;;;;;;5032722;28;20497;-90
2021/05/25 04:04:17;;;;;;;0.10;0.10;;;;;;;;;;5032533;28;20504;-90
2021/05/25 04:06:43;;;;;;;0.10;0.10;;;;;;;;;;5048958;28;20037;-90
2021/05/25 04:09:09;;;;;;;0.10;0.10;;;;;;;;;;5032507;28;20037;-90
2021/05/25 04:11:36;;;;;;;0.10;0.10;;;;;;;;;;5032380;28;20485;-90
2021/05/25 04:14:02;;;;;;;0.10;0.10;;;;;;;;;;5032446;28;20044;-90
2021/05/25 04:16:29;;;;;;;0.20;0.20;;;;;;;;;;5032699;28;20052;-89
2021/05/25 04:18:55;;;;;;;0.10;0.10;;;;;;;;;;5032205;28;20041;-90
2021/05/25 04:21:21;;;;;;;0.10;0.10;;;;;;;;;;5048645;28;20116;-90
2021/05/25 04:23:47;;;;;;;0.10;0.10;;;;;;;;;;5049152;28;20493;-90
2021/05/25 04:26:13;;;;;;;0.10;0.10;;;;;;;;;;5015935;28;20073;-90
2021/05/25 04:28:39;;;;;;;0.10;0.10;;;;;;;;;;5032211;28;20034;-91
2021/05/25 04:31:05;;;;;;;0.10;0.10;;;;;;;;;;5032171;28;20042;-90
2021/05/25 04:33:31;;;;;;;0.10;0.10;;;;;;;;;;5032235;28;20068;-91
2021/05/25 04:35:57;;;;;;;0.10;0.10;;;;;;;;;;5048794;28;20175;-90
2021/05/25 04:38:23;;;;;;;0.10;0.10;;;;;;;;;;5015552;28;20057;-90
2021/05/25 04:40:50;;;;;;;0.10;0.10;;;;;;;;;;5015733;28;20053;-90
2021/05/25 04:43:16;;;;;;;0.10;0.10;;;;;;;;;;5032013;28;20485;-90
2021/05/25 04:45:49;;;;;;;0.10;0.10;;;;;;;;;;5032110;28;20099;-90
2021/05/25 04:48:16;;;;;;;0.10;0.10;;;;;;;;;;5047549;28;20473;-90
2021/05/25 04:50:42;;;;;;;0.10;0.10;;;;;;;;;;5031729;28;20067;-89
2021/05/25 04:53:08;;;;;;;0.10;0.10;;;;;;;;;;5048046;28;20041;-90
2021/05/25 04:55:34;;;;;;;0.10;0.10;;;;;;;;;;5031645;28;20500;-90
2021/05/25 04:58:00;;;;;;;0.10;0.10;;;;;;;;;;5031756;28;20051;-90
2021/05/25 05:00:27;;;;;;;0.10;0.10;;;;;;;;;;5031622;28;20471;-90
2021/05/25 05:02:53;;;;;;;0.10;0.10;;;;;;;;;;5031688;28;20040;-89
2021/05/25 05:05:19;;;;;;;0.10;0.10;;;;;;;;;;5031104;28;20521;-89
2021/05/25 05:07:47;;;;;;;0.10;0.10;;;;;;;;;;5031715;28;20449;-89
2021/05/25 05:10:13;;;;;;;0.10;0.10;;;;;;;;;;5047637;28;20049;-90
2021/05/25 05:12:39;;;;;;;0.10;0.10;;;;;;;;;;5048216;28;20100;-90
2021/05/25 05:15:06;;;;;;;0.10;0.10;;;;;;;;;;5047846;28;20489;-89
2021/05/25 05:17:33;;;;;;;0.10;0.10;;;;;;;;;;5030888;28;20124;-89
2021/05/25 05:19:59;;;;;;;0.10;0.10;;;;;;;;;;5047676;28;20120;-90
2021/05/25 05:22:25;;;;;;;0.10;0.10;;;;;;;;;;5047853;28;20052;-89
2021/05/25 05:24:51;;;;;;;0.10;0.10;;;;;;;;;;5047413;28;20033;-90
2021/05/25 05:27:17;;;;;;;0.10;0.10;;;;;;;;;;5031508;28;20041;-90
2021/05/25 05:29:43;;;;;;;0.10;0.10;;;;;;;;;;5048165;28;20041;-90
2021/05/25 05:32:09;;;;;;;0.10;0.10;;;;;;;;;;5030763;28;20058;-89
2021/05/25 05:34:35;;;;;;;0.10;0.10;;;;;;;;;;5030680;28;20484;-89
2021/05/25 05:37:01;;;;;;;0.20;0.20;;;;;;;;;;5030943;28;20045;-90
2021/05/25 05:39:27;;;;;;;0.10;0.10;;;;;;;;;;5031144;28;20064;-89
2021/05/25 05:41:53;;;;;;;0.10;0.10;;;;;;;;;;5031473;28;20040;-90
2021/05/25 05:44:19;;;;;;;0.10;0.10;;;;;;;;;;5031542;28;20061;-91
2021/05/25 05:46:47;;;;;;;0.10;0.10;;;;;;;;;;5031328;28;20049;-90
2021/05/25 05:49:13;;;;;;;0.10;0.10;;;;;;;;;;5014904;28;20041;-90
2021/05/25 05:51:39;;;;;;;0.10;0.10;;;;;;;;;;5014859;28;20463;-88
2021/05/25 05:54:05;;;;;;;0.10;0.10;;;;;;;;;;5030690;28;20048;-88
2021/05/25 05:56:31;;;;;;;0.10;0.10;;;;;;;;;;5034403;28;20041;-88
2021/05/25 05:58:57;;;;;;;0.10;0.10;;;;;;;;;;5030259;28;20511;-88
2021/05/25 06:01:23;;;;;;;0.10;0.10;;;;;;;;;;5050762;28;20080;-92
2021/05/25 06:03:50;;;;;;;0.10;0.10;;;;;;;;;;5035638;28;20037;-89
2021/05/25 06:06:16;;;;;;;0.10;0.10;;;;;;;;;;5018133;28;20145;-90
2021/05/25 06:08:42;;;;;;;0.10;0.10;;;;;;;;;;5051290;28;20141;-91
2021/05/25 06:11:08;;;;;;;0.10;0.10;;;;;;;;;;5018177;28;20045;-88
2021/05/25 06:13:34;;;;;;;0.10;0.10;;;;;;;;;;5034094;28;20037;-88
2021/05/25 06:16:03;;;;;;;0.10;0.10;;;;;;;;;;5034316;28;20051;-90
2021/05/25 06:18:30;;;;;;;0.10;0.10;;;;;;;;;;5034609;28;20041;-91
2021/05/25 06:21:01;;;;;;;0.10;0.10;;;;;;;;;;5035966;28;20109;-96
2021/05/25 06:23:30;;;;;;;0.10;0.10;;;;;;;;;;5035574;28;20044;-93
2021/05/25 06:25:58;;;;;;;0.10;0.10;;;;;;;;;;5034408;28;20038;-88
2021/05/25 06:28:24;;;;;;;0.10;0.10;;;;;;;;;;5049953;28;20187;-88
2021/05/25 06:30:50;;;;;;;0.10;0.10;;;;;;;;;;5034102;28;20560;-89
2021/05/25 06:33:16;;;;;;;0.10;0.10;;;;;;;;;;5033631;28;20038;-87
2021/05/25 06:35:42;;;;;;;0.10;0.10;;;;;;;;;;5050318;28;20473;-93
2021/05/25 06:38:08;;;;;;;0.10;0.10;;;;;;;;;;5034155;28;20061;-88
2021/05/25 06:40:34;;;;;;;0.10;0.10;;;;;;;;;;5033883;28;20034;-91
2021/05/25 06:43:00;;;;;;;0.10;0.10;;;;;;;;;;5033646;28;20068;-88
2021/05/25 06:45:27;;;;;;;0.10;0.10;;;;;;;;;;5033251;28;20077;-88
2021/05/25 06:47:54;;;;;;;0.10;0.10;;;;;;;;;;5033490;28;20083;-92
2021/05/25 06:50:20;;;;;;;0.10;0.10;;;;;;;;;;5049921;28;20041;-86
2021/05/25 06:52:47;;;;;;;0.10;0.10;;;;;;;;;;5033207;28;20036;-86
2021/05/25 06:55:13;;;;;;;0.10;0.10;;;;;;;;;;5049981;28;20037;-91
2021/05/25 06:57:40;;;;;;;0.10;0.10;;;;;;;;;;5034061;28;20485;-90
2021/05/25 07:00:06;;;;;;;0.10;0.10;;;;;;;;;;5033932;28;20038;-91
2021/05/25 07:02:32;;;;;;;0.10;0.10;;;;;;;;;;5033024;28;20037;-86
2021/05/25 07:04:58;;;;;;;0.10;0.10;;;;;;;;;;5032864;28;20042;-87
2021/05/25 07:07:24;;;;;;;0.10;0.10;;;;;;;;;;5049612;28;20484;-87
2021/05/25 07:09:50;;;;;;;0.10;0.10;;;;;;;;;;5033012;28;20033;-89
2021/05/25 07:12:17;;;;;;;0.10;0.10;;;;;;;;;;5048928;28;20552;-94
2021/05/25 07:14:45;;;;;;;0.10;0.10;;;;;;;;;;5017305;28;20037;-90
2021/05/25 07:17:11;;;;;;;0.10;0.10;;;;;;;;;;5033199;28;20049;-86
2021/05/25 07:19:37;;;;;;;0.10;0.10;;;;;;;;;;5032462;28;20481;-87
2021/05/25 07:22:03;;;;;;;0.10;0.10;;;;;;;;;;5032742;28;20052;-87
2021/05/25 07:24:29;;;;;;;0.10;0.10;;;;;;;;;;5032473;28;20120;-87
2021/05/25 07:26:55;;;;;;;0.10;0.10;;;;;;;;;;5033494;28;20120;-87
2021/05/25 07:29:21;;;;;;;0.10;0.10;;;;;;;;;;5049612;28;20053;-85
2021/05/25 07:31:47;;;;;;;0.10;0.10;;;;;;;;;;5049802;28;20042;-90
2021/05/25 07:34:13;;;;;;;0.10;0.10;;;;;;;;;;5016362;28;20477;-89
2021/05/25 07:36:39;;;;;;;0.10;0.10;;;;;;;;;;5015683;28;20504;-87
2021/05/25 07:39:06;;;;;;;0.10;0.10;;;;;;;;;;5010803;28;20504;-87
2021/05/25 07:41:32;;;;;;;0.10;0.10;;;;;;;;;;5030894;28;20037;-87
2021/05/25 07:43:58;;;;;;;0.10;0.10;;;;;;;;;;5048546;28;20400;-87
2021/05/25 07:46:25;;;;;;;0.10;0.10;;;;;;;;;;5048737;28;20446;-87
2021/05/25 07:48:52;;;;;;;0.10;0.10;;;;;;;;;;5032198;28;20038;-88
2021/05/25 07:51:19;;;;;;;0.10;0.10;;;;;;;;;;5033331;28;20116;-87
2021/05/25 07:53:45;;;;;;;0.10;0.10;;;;;;;;;;5048417;28;20470;-87
2021/05/25 07:56:11;;;;;;;0.10;0.10;;;;;;;;;;5033016;28;20045;-87
2021/05/25 07:58:37;;;;;;;0.20;0.20;;;;;;;;;;5033010;28;20038;-87
2021/05/25 08:01:03;;;;;;;0.10;0.10;;;;;;;;;;5031586;28;20049;-88
2021/05/25 08:03:29;;;;;;;0.10;0.10;;;;;;;;;;5031884;28;20069;-88
2021/05/25 08:05:58;;;;;;;0.10;0.10;;;;;;;;;;5031709;28;20444;-91
2021/05/25 08:08:24;;;;;;;0.10;0.10;;;;;;;;;;5031610;28;20041;-86
2021/05/25 08:10:50;;;;;;;0.10;0.10;;;;;;;;;;5048005;28;20040;-88
2021/05/25 08:13:16;;;;;;;0.10;0.10;;;;;;;;;;5047265;28;20037;-86
2021/05/25 08:15:42;;;;;;;0.10;0.10;;;;;;;;;;5031583;28;20053;-88
2021/05/25 08:18:16;;;;;;;0.10;0.10;;;;;;;;;;5032171;28;20041;-84
2021/05/25 08:20:44;;;;;;;0.10;0.10;;;;;;;;;;5031359;28;20481;-86
2021/05/25 08:23:11;;;;;;;0.10;0.10;;;;;;;;;;5031183;28;20588;-85
2021/05/25 08:25:37;;;;;;;0.10;0.10;;;;;;;;;;5031266;28;20560;-83
2021/05/25 08:28:03;;;;;;;0.10;0.10;;;;;;;;;;5047693;28;20042;-83
2021/05/25 08:30:31;;;;;;;0.10;0.10;;;;;;;;;;5031424;28;20041;-83
2021/05/25 08:32:57;;;;;;;0.10;0.10;;;;;;;;;;5031444;28;20077;-82
2021/05/25 08:35:23;;;;;;;0.10;0.10;;;;;;;;;;5032347;28;20069;-83
2021/05/25 08:37:59;;;;;;;0.10;0.10;;;;;;;;;;5047467;28;20053;-82
2021/05/25 08:40:26;;;;;;;0.22;0.22;;;;;;;;;;5046887;28;20382;-83
2021/05/25 08:42:52;;;;;;;0.10;0.10;;;;;;;;;;5047424;28;20037;-83
2021/05/25 08:45:20;;;;;;;0.13;0.13;;;;;;;;;;5032138;28;20538;-82
2021/05/25 08:47:46;;;;;;;0.10;0.10;;;;;;;;;;5032170;28;20125;-83
2021/05/25 08:50:14;;;;;;;0.10;0.10;;;;;;;;;;5047569;28;20053;-83
2021/05/25 08:52:40;;;;;;;0.10;0.10;;;;;;;;;;5032176;28;20041;-83
2021/05/25 08:55:07;;;;;;;0.10;0.10;;;;;;;;;;5030959;28;20508;-84
2021/05/25 08:57:33;;;;;;;0.10;0.10;;;;;;;;;;5047366;28;20033;-84
2021/05/25 08:59:59;;;;;;;0.10;0.10;;;;;;;;;;5047608;28;20045;-83
2021/05/25 09:02:25;;;;;;;0.20;0.15;;;;;;;;;;5047401;28;20061;-83
2021/05/25 09:05:01;;;;;;;0.20;0.20;;;;;;;;;;5047464;28;20033;-84
2021/05/25 09:07:36;;;;;;;0.10;0.10;;;;;;;;;;5047135;28;20045;-84
2021/05/25 09:10:03;;;;;;;0.10;0.10;;;;;;;;;;5032057;28;20069;-84
2021/05/25 09:12:33;;;;;;;0.20;0.20;;;;;;;;;;5047538;28;20041;-83
2021/05/25 09:15:00;;;;;;;0.10;0.10;;;;;;;;;;5047378;28;20436;-84
2021/05/25 09:17:26;;;;;;;0.10;0.10;;;;;;;;;;5047147;28;20041;-84
2021/05/25 09:19:53;;;;;;;0.10;0.10;;;;;;;;;;5014214;28;20076;-83
2021/05/25 09:22:24;;;;;;;0.17;0.17;;;;;;;;;;5031921;28;20091;-83
2021/05/25 09:24:50;;;;;;;0.10;0.10;;;;;;;;;;5030764;28;20037;-83
2021/05/25 09:27:29;;;;;;;0.10;0.10;;;;;;;;;;5031762;28;20056;-82
2021/05/25 09:30:08;;;;;;;0.10;0.10;;;;;;;;;;5031853;28;20091;-83
2021/05/25 09:32:37;;;;;;;0.10;0.10;;;;;;;;;;5031838;28;20374;-82
2021/05/25 09:35:06;;;;;;;0.10;0.10;;;;;;;;;;5031833;28;20048;-82
2021/05/25 09:37:39;;;;;;;0.10;0.10;;;;;;;;;;5051015;28;20474;-83
2021/05/25 09:40:06;;;;;;;0.10;0.10;;;;;;;;;;5051024;28;20407;-82
2021/05/25 09:42:32;;;;;;;0.10;0.10;;;;;;;;;;5017992;28;20457;-83
2021/05/25 09:44:59;;;;;;;0.10;0.10;;;;;;;;;;5035564;28;20038;-83
2021/05/25 09:47:33;;;;;;;0.10;0.10;;;;;;;;;;5035381;28;20223;-82
2021/05/25 09:49:59;;;;;;;0.40;0.40;;;;;;;;;;5051068;28;20116;-82
2021/05/25 09:52:26;;;;;;;0.10;0.10;;;;;;;;;;5050719;28;20045;-83
2021/05/25 09:55:03;;;;;;;0.20;0.20;;;;;;;;;;5050859;28;20087;-83
2021/05/25 09:57:39;;;;;;;0.10;0.10;;;;;;;;;;5051036;28;20041;-82
2021/05/25 10:00:23;;;;;;;0.10;0.10;;;;;;;;;;5034301;28;20473;-82
2021/05/25 10:02:54;;;;;;;0.10;0.10;;;;;;;;;;5050493;28;20507;-83
2021/05/25 10:05:20;;;;;;;0.15;0.15;;;;;;;;;;5050577;28;20045;-82
2021/05/25 10:07:46;;;;;;;0.10;0.10;;;;;;;;;;5050535;28;20072;-83
2021/05/25 10:10:12;;;;;;;0.10;0.10;;;;;;;;;;5050568;28;20159;-82
2021/05/25 10:12:38;;;;;;;0.10;0.10;;;;;;;;;;5033996;28;20095;-82
2021/05/25 10:15:05;;;;;;;0.20;0.20;;;;;;;;;;5050700;28;20037;-82
2021/05/25 10:17:43;;;;;;;0.10;0.10;;;;;;;;;;5035101;28;20041;-83
2021/05/25 10:20:10;;;;;;;0.10;0.10;;;;;;;;;;5048869;28;20037;-83
2021/05/25 10:22:36;;;;;;;0.10;0.10;;;;;;;;;;5050340;28;20038;-83
2021/05/25 10:25:02;;;;;;;0.10;0.10;;;;;;;;;;5050405;28;20030;-82
2021/05/25 10:27:28;;;;;;;0.10;0.10;;;;;;;;;;5034815;28;20507;-83
2021/05/25 10:29:54;;;;;;;0.10;0.10;;;;;;;;;;5050105;28;20472;-82
2021/05/25 10:32:24;;;;;;;0.10;0.10;;;;;;;;;;5033785;28;20050;-83
2021/05/25 10:34:52;;;;;;;0.20;0.20;;;;;;;;;;5050099;28;20128;-83
2021/05/25 10:37:18;;;;;;;0.45;0.10;;;;;;;;;;5049586;28;20042;-83
2021/05/25 10:39:45;;;;;;;0.40;0.40;;;;;;;;;;5050038;28;20052;-83
2021/05/25 10:42:14;;;;;;;0.10;0.10;;;;;;;;;;5050059;28;20099;-83
2021/05/25 10:44:47;;;;;;;0.10;0.10;;;;;;;;;;5034564;28;20041;-82
2021/05/25 10:47:13;;;;;;;;;;;;;;;;;;5048974;28;20129;-83
2021/05/25 10:50:11;;;;;;;0.10;0.10;;;;;;;;;;5034521;28;19984;-82
2021/05/25 10:52:39;;;;;;;0.10;0.10;;;;;;;;;;5033331;28;20045;-83
2021/05/25 10:55:05;;;;;;;0.13;0.13;;;;;;;;;;5049820;28;20477;-83
2021/05/25 10:57:34;;;;;;;0.10;0.10;;;;;;;;;;5049675;28;20119;-83
2021/05/25 11:00:00;;;;;;;0.10;0.10;;;;;;;;;;5033041;28;20121;-83
2021/05/25 11:02:42;;;;;;;0.10;0.10;;;;;;;;;;5033011;28;20121;-83
2021/05/25 11:05:27;;;;;;;1.58;0.43;;;;;;;;;;5032999;28;20041;-82
2021/05/25 11:07:56;;;;;;;0.10;0.10;;;;;;;;;;5032928;28;20037;-83
2021/05/25 11:10:29;;;;;;;0.10;0.10;;;;;;;;;;5049416;28;20041;-82
2021/05/25 11:13:13;;;;;;;0.10;0.10;;;;;;;;;;5034111;28;20405;-83
2021/05/25 11:15:58;;;;;;;0.10;0.10;;;;;;;;;;5033943;28;20045;-84
2021/05/25 11:18:34;;;;;;;0.10;0.10;;;;;;;;;;5033904;28;20045;-83
2021/05/25 11:21:30;;;;;;;0.10;0.10;;;;;;;;;;5032744;28;20076;-83
2021/05/25 11:23:57;;;;;;;0.10;0.10;;;;;;;;;;5032549;28;20481;-83
2021/05/25 11:26:42;;;;;;;0.10;0.10;;;;;;;;;;5033625;28;20041;-84
2021/05/25 11:29:14;;;;;;;0.10;0.10;;;;;;;;;;5032704;28;20473;-84
2021/05/25 11:31:41;;;;;;;0.10;0.10;;;;;;;;;;5033735;28;20087;-83
2021/05/25 11:34:07;;;;;;;0.10;0.10;;;;;;;;;;5033836;28;20193;-83
2021/05/25 11:36:34;;;;;;;0.10;0.10;;;;;;;;;;5033438;28;20045;-83
2021/05/25 11:39:01;;;;;;;0.17;0.17;;;;;;;;;;5033389;28;20054;-83
2021/05/25 11:41:27;;;;;;;0.10;0.10;;;;;;;;;;5032257;28;20045;-84
2021/05/25 11:44:06;;;;;;;0.10;0.10;;;;;;;;;;5048874;28;20389;-83
2021/05/25 11:46:45;;;;;;;0.10;0.10;;;;;;;;;;5048522;28;20485;-83
2021/05/25 11:49:12;;;;;;;0.10;0.10;;;;;;;;;;5033265;28;20116;-83
2021/05/25 11:51:38;;;;;;;0.10;0.10;;;;;;;;;;5048813;28;20069;-82
2021/05/25 11:54:11;;;;;;;0.10;0.10;;;;;;;;;;5032080;28;20046;-83
2021/05/25 11:56:38;;;;;;;0.10;0.10;;;;;;;;;;5033242;28;20037;-83
2021/05/25 11:59:04;;;;;;;0.10;0.10;;;;;;;;;;5032914;28;20042;-82
2021/05/25 12:02:03;;;;;;;0.20;0.20;;;;;;;;;;5031843;28;20037;-83
2021/05/25 12:04:30;;;;;;;0.10;0.10;;;;;;;;;;4978885;28;20045;-83
2021/05/25 12:06:58;;;;;;;0.10;0.10;;;;;;;;;;5033137;28;20484;-83
2021/05/25 12:09:30;;;;;;;0.10;0.10;;;;;;;;;;5033068;28;20061;-84
2021/05/25 12:12:01;;;;;;;0.10;0.10;;;;;;;;;;5032831;28;20112;-83
2021/05/25 12:14:28;;;;;;;0.10;0.10;;;;;;;;;;5048123;28;20037;-83
2021/05/25 12:16:58;;;;;;;0.20;0.20;;;;;;;;;;5048057;28;20045;-83
2021/05/25 12:19:24;;;;;;;0.10;0.10;;;;;;;;;;5048188;28;20063;-84
2021/05/25 12:21:50;;;;;;;0.10;0.10;;;;;;;;;;5032828;28;20033;-83
2021/05/25 12:24:26;;;;;;;0.10;0.10;;;;;;;;;;5048088;28;20495;-83
2021/05/25 12:26:52;;;;;;;0.10;0.10;;;;;;;;;;5047846;28;20114;-83
2021/05/25 12:29:19;;;;;;;0.15;0.15;;;;;;;;;;5047983;28;20431;-83
2021/05/25 12:31:45;;;;;;;0.10;0.10;;;;;;;;;;5047927;28;20451;-83
2021/05/25 12:34:11;;;;;;;0.10;0.10;;;;;;;;;;5048041;28;20041;-83
2021/05/25 12:36:50;;;;;;;0.10;0.10;;;;;;;;;;5047866;28;20431;-83
2021/05/25 12:39:25;;;;;;;0.10;0.10;;;;;;;;;;5047621;28;20080;-83
2021/05/25 12:41:51;;;;;;;0.10;0.10;;;;;;;;;;5046736;28;20114;-83
2021/05/25 12:44:21;;;;;;;0.10;0.10;;;;;;;;;;5031388;28;20041;-83
2021/05/25 12:46:53;;;;;;;0.10;0.10;;;;;;;;;;5031035;28;20528;-82
2021/05/25 12:49:19;;;;;;;;;;;;;;;;;;5032783;28;20048;-83
2021/05/25 12:51:46;;;;;;;0.10;0.10;;;;;;;;;;5032188;28;19917;-83
2021/05/25 12:54:17;;;;;;;0.10;0.10;;;;;;;;;;5032468;28;20075;-84
2021/05/25 12:56:55;;;;;;;0.10;0.10;;;;;;;;;;5047639;28;20481;-83
2021/05/25 12:59:21;;;;;;;0.10;0.10;;;;;;;;;;5047656;28;20060;-83
2021/05/25 13:01:47;;;;;;;0.10;0.10;;;;;;;;;;5032236;28;20445;-83
2021/05/25 13:04:13;;;;;;;0.10;0.10;;;;;;;;;;5032200;28;20334;-83
2021/05/25 13:09:19;;;;;;;0.10;0.10;;;;;;;;;;5046595;28;20092;-83
2021/05/25 13:11:59;;;;;;;0.20;0.20;;;;;;;;;;5030852;28;20047;-83
2021/05/25 13:14:25;;;;;;;0.17;0.17;;;;;;;;;;5032097;28;20041;-83
2021/05/25 13:16:57;;;;;;;0.10;0.10;;;;;;;;;;5031979;28;20872;-83
2021/05/25 13:19:32;;;;;;;0.10;0.10;;;;;;;;;;5032114;28;20099;-83
2021/05/25 13:21:59;;;;;;;0.10;0.10;;;;;;;;;;5032020;28;20038;-83
2021/05/25 13:24:25;;;;;;;0.10;0.10;;;;;;;;;;5047361;28;20037;-83
2021/05/25 13:26:51;;;;;;;0.10;0.10;;;;;;;;;;5030544;28;20041;-83
2021/05/25 13:29:19;;;;;;;0.10;0.10;;;;;;;;;;5047203;28;20064;-83
2021/05/25 13:31:46;;;;;;;0.10;0.10;;;;;;;;;;5030848;28;20069;-83
2021/05/25 13:34:17;;;;;;;0.10;0.10;;;;;;;;;;5030804;28;20033;-82
2021/05/25 13:36:44;;;;;;;0.10;0.10;;;;;;;;;;5047210;28;20064;-83
2021/05/25 13:39:10;;;;;;;0.10;0.10;;;;;;;;;;5046886;28;20079;-83
2021/05/25 13:41:37;;;;;;;0.20;0.20;;;;;;;;;;5046966;28;20112;-83
2021/05/25 13:44:04;;;;;;;0.10;0.10;;;;;;;;;;5047128;28;20040;-83
2021/05/25 13:46:30;;;;;;;0.10;0.10;;;;;;;;;;5046893;28;20094;-83
2021/05/25 13:48:56;;;;;;;0.10;0.10;;;;;;;;;;5030556;28;20134;-83
2021/05/25 13:51:22;;;;;;;0.10;0.10;;;;;;;;;;5031728;28;20045;-83
2021/05/25 13:53:48;;;;;;;0.10;0.10;;;;;;;;;;5031720;28;20064;-83
2021/05/25 13:56:35;;;;;;;0.10;0.10;;;;;;;;;;5031616;28;20378;-83
2021/05/25 13:59:11;;;;;;;0.10;0.10;;;;;;;;;;5030070;28;20058;-82
2021/05/25 14:01:37;;;;;;;0.20;0.20;;;;;;;;;;5045888;28;20034;-83
2021/05/25 14:04:03;;;;;;;0.20;0.20;;;;;;;;;;5046914;28;20047;-84
2021/05/25 14:06:29;;;;;;;0.10;0.10;;;;;;;;;;5031377;28;20038;-83
2021/05/25 14:08:55;;;;;;;0.13;0.13;;;;;;;;;;5046961;28;20046;-83
2021/05/25 14:11:23;;;;;;;0.10;0.10;;;;;;;;;;5031644;28;20167;-84
2021/05/25 14:13:49;;;;;;;0.10;0.10;;;;;;;;;;5030485;28;20396;-83
2021/05/25 14:16:16;;;;;;;0.10;0.10;;;;;;;;;;5031691;28;20370;-85
2021/05/25 14:18:42;;;;;;;0.10;0.10;;;;;;;;;;5046700;28;20064;-83
2021/05/25 14:21:09;;;;;;;0.10;0.10;;;;;;;;;;5048013;28;20037;-83
2021/05/25 14:23:36;;;;;;;0.10;0.10;;;;;;;;;;5033815;28;20099;-82
2021/05/25 14:26:02;;;;;;;0.10;0.10;;;;;;;;;;5033630;28;20042;-82
2021/05/25 14:28:28;;;;;;;0.10;0.10;;;;;;;;;;5050075;28;20041;-81
2021/05/25 14:30:54;;;;;;;0.10;0.10;;;;;;;;;;5033535;28;20109;-82
2021/05/25 14:33:21;;;;;;;0.15;0.15;;;;;;;;;;5034733;28;20123;-83
2021/05/25 14:35:47;;;;;;;0.10;0.10;;;;;;;;;;5033486;28;20285;-83
2021/05/25 14:38:13;;;;;;;0.10;0.10;;;;;;;;;;5049589;28;20080;-83
2021/05/25 14:40:39;;;;;;;0.10;0.10;;;;;;;;;;5049796;28;20042;-84
2021/05/25 14:43:06;;;;;;;0.10;0.10;;;;;;;;;;5049795;28;20053;-84
2021/05/25 14:45:32;;;;;;;0.13;0.13;;;;;;;;;;5033102;28;20091;-82
2021/05/25 14:47:58;;;;;;;0.30;0.30;;;;;;;;;;5032979;28;20060;-82
2021/05/25 14:50:25;;;;;;;0.25;0.25;;;;;;;;;;5034226;28;20037;-83